sensor_id;sensor_type;location;lat;lon;timestamp;pressure;altitude;pressure_sealevel;temperature;humidity
48027;BME280;50714;49.208;5.364;2023-04-06T00:06:07;99665.84;;;3.94;55.57
48027;BME280;50714;49.208;5.364;2023-04-06T00:16:08;99655.03;;;3.78;56.37
48027;BME280;50714;49.208;5.364;2023-04-06T00:26:08;99651.28;;;3.89;56.40
48027;BME280;50714;49.208;5.364;2023-04-06T00:36:10;99644.84;;;3.73;56.84
48027;BME280;50714;49.208;5.364;2023-04-06T00:46:10;99632.31;;;3.48;56.93
48027;BME280;50714;49.208;5.364;2023-04-06T00:56:11;99625.09;;;3.40;57.79
48027;BME280;50714;49.208;5.364;2023-04-06T01:06:11;99624.84;;;3.34;57.90
48027;BME280;50714;49.208;5.364;2023-04-06T01:16:12;99618.44;;;3.45;57.28
48027;BME280;50714;49.208;5.364;2023-04-06T01:26:13;99603.91;;;3.21;57.68
48027;BME280;50714;49.208;5.364;2023-04-06T01:36:13;99590.66;;;3.12;58.16
48027;BME280;50714;49.208;5.364;2023-04-06T01:46:15;99589.22;;;3.17;58.52
48027;BME280;50714;49.208;5.364;2023-04-06T01:56:15;99581.06;;;3.19;57.98
48027;BME280;50714;49.208;5.364;2023-04-06T02:06:15;99576.03;;;3.16;57.89
48027;BME280;50714;49.208;5.364;2023-04-06T02:16:16;99567.97;;;3.07;59.39
48027;BME280;50714;49.208;5.364;2023-04-06T02:26:17;99564.38;;;3.17;59.85
48027;BME280;50714;49.208;5.364;2023-04-06T02:36:17;99554.81;;;3.06;59.84
48027;BME280;50714;49.208;5.364;2023-04-06T02:46:17;99559.59;;;3.02;60.67
48027;BME280;50714;49.208;5.364;2023-04-06T02:56:18;99549.53;;;3.14;60.50
48027;BME280;50714;49.208;5.364;2023-04-06T03:06:18;99553.13;;;2.87;60.38
48027;BME280;50714;49.208;5.364;2023-04-06T03:16:18;99551.13;;;2.89;61.24
48027;BME280;50714;49.208;5.364;2023-04-06T03:26:19;99551.69;;;2.93;61.14
48027;BME280;50714;49.208;5.364;2023-04-06T03:36:19;99548.31;;;3.08;61.24
48027;BME280;50714;49.208;5.364;2023-04-06T03:46:20;99552.13;;;2.88;61.06
48027;BME280;50714;49.208;5.364;2023-04-06T03:56:20;99544.44;;;2.85;62.72
48027;BME280;50714;49.208;5.364;2023-04-06T04:06:21;99553.38;;;2.76;62.77
48027;BME280;50714;49.208;5.364;2023-04-06T04:16:21;99550.25;;;2.81;64.38
48027;BME280;50714;49.208;5.364;2023-04-06T04:26:21;99549.13;;;2.83;64.23
48027;BME280;50714;49.208;5.364;2023-04-06T04:36:22;99546.75;;;2.80;64.10
48027;BME280;50714;49.208;5.364;2023-04-06T04:46:23;99546.91;;;2.79;63.82
48027;BME280;50714;49.208;5.364;2023-04-06T04:56:23;99549.00;;;2.93;64.60
48027;BME280;50714;49.208;5.364;2023-04-06T05:06:24;99555.88;;;2.95;65.05
48027;BME280;50714;49.208;5.364;2023-04-06T05:16:25;99557.13;;;3.09;65.07
48027;BME280;50714;49.208;5.364;2023-04-06T05:26:26;99558.88;;;3.18;65.45
48027;BME280;50714;49.208;5.364;2023-04-06T05:36:26;99556.97;;;3.28;65.56
48027;BME280;50714;49.208;5.364;2023-04-06T05:46:27;99567.00;;;3.34;65.68
48027;BME280;50714;49.208;5.364;2023-04-06T05:56:27;99558.59;;;3.21;65.67
48027;BME280;50714;49.208;5.364;2023-04-06T06:06:28;99553.66;;;3.52;65.84
48027;BME280;50714;49.208;5.364;2023-04-06T06:16:30;99556.16;;;3.88;65.61
48027;BME280;50714;49.208;5.364;2023-04-06T06:26:30;99564.88;;;4.24;65.06
48027;BME280;50714;49.208;5.364;2023-04-06T06:36:31;99564.41;;;4.36;64.88
48027;BME280;50714;49.208;5.364;2023-04-06T06:46:32;99564.50;;;4.69;64.36
48027;BME280;50714;49.208;5.364;2023-04-06T06:56:32;99565.19;;;4.87;63.83
48027;BME280;50714;49.208;5.364;2023-04-06T07:06:32;99558.16;;;5.27;63.93
48027;BME280;50714;49.208;5.364;2023-04-06T07:16:33;99558.69;;;5.38;62.70
48027;BME280;50714;49.208;5.364;2023-04-06T07:26:33;99555.31;;;5.61;61.94
48027;BME280;50714;49.208;5.364;2023-04-06T07:36:33;99552.06;;;5.81;62.08
48027;BME280;50714;49.208;5.364;2023-04-06T07:46:34;99553.59;;;6.31;61.23
48027;BME280;50714;49.208;5.364;2023-04-06T07:56:35;99554.09;;;7.11;60.18
48027;BME280;50714;49.208;5.364;2023-04-06T08:06:36;99560.56;;;8.07;58.91
48027;BME280;50714;49.208;5.364;2023-04-06T08:16:36;99569.53;;;8.58;57.44
48027;BME280;50714;49.208;5.364;2023-04-06T08:26:37;99569.06;;;9.82;55.65
48027;BME280;50714;49.208;5.364;2023-04-06T08:36:37;99567.88;;;10.61;52.48
48027;BME280;50714;49.208;5.364;2023-04-06T08:46:37;99581.00;;;10.29;52.33
48027;BME280;50714;49.208;5.364;2023-04-06T08:56:38;99568.44;;;10.15;53.28
48027;BME280;50714;49.208;5.364;2023-04-06T09:06:40;99578.47;;;10.21;53.06
48027;BME280;50714;49.208;5.364;2023-04-06T09:16:45;99575.50;;;10.50;52.14
48027;BME280;50714;49.208;5.364;2023-04-06T09:26:46;99580.25;;;11.16;52.75
48027;BME280;50714;49.208;5.364;2023-04-06T09:36:46;99581.78;;;11.71;52.44
48027;BME280;50714;49.208;5.364;2023-04-06T09:46:47;99583.66;;;12.04;51.78
48027;BME280;50714;49.208;5.364;2023-04-06T09:57:15;99591.91;;;12.28;51.65
48027;BME280;50714;49.208;5.364;2023-04-06T10:07:11;99588.16;;;12.29;52.35
48027;BME280;50714;49.208;5.364;2023-04-06T10:17:12;99586.56;;;13.18;52.57
48027;BME280;50714;49.208;5.364;2023-04-06T10:27:12;99593.16;;;13.28;51.39
48027;BME280;50714;49.208;5.364;2023-04-06T10:37:14;99595.56;;;12.60;52.81
48027;BME280;50714;49.208;5.364;2023-04-06T10:47:18;99594.44;;;12.10;54.27
48027;BME280;50714;49.208;5.364;2023-04-06T10:57:28;99589.03;;;12.17;54.70
48027;BME280;50714;49.208;5.364;2023-04-06T11:07:29;99589.72;;;11.79;54.73
48027;BME280;50714;49.208;5.364;2023-04-06T11:17:31;99604.19;;;11.39;56.09
48027;BME280;50714;49.208;5.364;2023-04-06T11:27:36;99598.31;;;11.02;57.92
48027;BME280;50714;49.208;5.364;2023-04-06T11:37:36;99593.69;;;10.83;58.70
48027;BME280;50714;49.208;5.364;2023-04-06T11:47:37;99582.19;;;10.61;59.49
48027;BME280;50714;49.208;5.364;2023-04-06T11:57:41;99562.78;;;10.38;59.98
48027;BME280;50714;49.208;5.364;2023-04-06T12:07:42;99564.19;;;10.27;61.27
48027;BME280;50714;49.208;5.364;2023-04-06T12:17:42;99545.81;;;10.16;61.55
48027;BME280;50714;49.208;5.364;2023-04-06T12:27:42;99535.38;;;10.00;63.03
48027;BME280;50714;49.208;5.364;2023-04-06T12:37:43;99511.97;;;10.07;64.04
48027;BME280;50714;49.208;5.364;2023-04-06T12:47:43;99503.41;;;9.97;63.48
48027;BME280;50714;49.208;5.364;2023-04-06T12:57:44;99497.28;;;10.16;65.96
48027;BME280;50714;49.208;5.364;2023-04-06T13:07:45;99484.06;;;10.21;64.49
48027;BME280;50714;49.208;5.364;2023-04-06T13:17:46;99479.47;;;10.15;64.86
48027;BME280;50714;49.208;5.364;2023-04-06T13:27:47;99471.22;;;10.23;64.92
48027;BME280;50714;49.208;5.364;2023-04-06T13:37:48;99483.00;;;10.15;64.86
48027;BME280;50714;49.208;5.364;2023-04-06T13:47:50;99482.88;;;10.30;65.64
48027;BME280;50714;49.208;5.364;2023-04-06T13:57:51;99482.91;;;10.43;62.85
48027;BME280;50714;49.208;5.364;2023-04-06T14:07:51;99487.50;;;10.49;63.40
48027;BME280;50714;49.208;5.364;2023-04-06T14:17:51;99494.56;;;10.50;64.31
48027;BME280;50714;49.208;5.364;2023-04-06T14:27:52;99483.97;;;10.49;64.34
48027;BME280;50714;49.208;5.364;2023-04-06T14:37:52;99476.84;;;10.28;64.62
48027;BME280;50714;49.208;5.364;2023-04-06T14:47:53;99476.00;;;10.28;64.70
48027;BME280;50714;49.208;5.364;2023-04-06T14:57:53;99470.50;;;10.08;65.34
48027;BME280;50714;49.208;5.364;2023-04-06T15:07:53;99476.44;;;9.90;67.67
48027;BME280;50714;49.208;5.364;2023-04-06T15:17:53;99456.53;;;9.91;68.42
48027;BME280;50714;49.208;5.364;2023-04-06T15:27:54;99453.94;;;10.11;68.33
48027;BME280;50714;49.208;5.364;2023-04-06T15:37:55;99459.13;;;10.12;69.08
48027;BME280;50714;49.208;5.364;2023-04-06T15:47:56;99468.16;;;9.91;71.01
48027;BME280;50714;49.208;5.364;2023-04-06T15:57:57;99463.25;;;9.67;75.03
48027;BME280;50714;49.208;5.364;2023-04-06T16:07:57;99456.72;;;9.55;75.89
48027;BME280;50714;49.208;5.364;2023-04-06T16:17:57;99448.09;;;9.66;76.71
48027;BME280;50714;49.208;5.364;2023-04-06T16:27:58;99441.34;;;9.83;77.56
48027;BME280;50714;49.208;5.364;2023-04-06T16:37:59;99437.88;;;9.89;77.22
48027;BME280;50714;49.208;5.364;2023-04-06T16:48:00;99435.56;;;9.86;76.77
48027;BME280;50714;49.208;5.364;2023-04-06T16:58:01;99433.84;;;9.79;77.03
48027;BME280;50714;49.208;5.364;2023-04-06T17:08:01;99429.88;;;9.68;78.21
48027;BME280;50714;49.208;5.364;2023-04-06T17:18:02;99440.22;;;9.65;78.91
48027;BME280;50714;49.208;5.364;2023-04-06T17:28:02;99431.69;;;9.61;80.24
48027;BME280;50714;49.208;5.364;2023-04-06T17:38:02;99431.47;;;9.56;81.66
48027;BME280;50714;49.208;5.364;2023-04-06T17:48:03;99434.94;;;9.50;82.91
48027;BME280;50714;49.208;5.364;2023-04-06T17:58:03;99424.56;;;9.47;82.74
48027;BME280;50714;49.208;5.364;2023-04-06T18:08:04;99433.28;;;9.49;84.24
48027;BME280;50714;49.208;5.364;2023-04-06T18:18:05;99439.69;;;9.48;84.90
48027;BME280;50714;49.208;5.364;2023-04-06T18:28:07;99450.06;;;9.51;84.59
48027;BME280;50714;49.208;5.364;2023-04-06T18:38:08;99446.75;;;9.49;85.31
48027;BME280;50714;49.208;5.364;2023-04-06T18:48:09;99448.59;;;9.48;84.88
48027;BME280;50714;49.208;5.364;2023-04-06T18:58:09;99455.84;;;9.48;85.87
48027;BME280;50714;49.208;5.364;2023-04-06T19:08:10;99450.25;;;9.43;85.95
48027;BME280;50714;49.208;5.364;2023-04-06T19:18:11;99449.59;;;9.41;86.94
48027;BME280;50714;49.208;5.364;2023-04-06T19:28:11;99459.09;;;9.37;86.69
48027;BME280;50714;49.208;5.364;2023-04-06T19:38:13;99457.06;;;9.39;87.11
48027;BME280;50714;49.208;5.364;2023-04-06T19:48:14;99456.03;;;9.40;86.79
48027;BME280;50714;49.208;5.364;2023-04-06T19:58:14;99453.97;;;9.42;88.17
48027;BME280;50714;49.208;5.364;2023-04-06T20:08:14;99457.50;;;9.42;87.23
48027;BME280;50714;49.208;5.364;2023-04-06T20:18:15;99455.44;;;9.44;87.91
48027;BME280;50714;49.208;5.364;2023-04-06T20:28:15;99445.47;;;9.45;88.48
48027;BME280;50714;49.208;5.364;2023-04-06T20:38:15;99454.59;;;9.44;88.77
48027;BME280;50714;49.208;5.364;2023-04-06T20:48:16;99457.50;;;9.49;88.81
48027;BME280;50714;49.208;5.364;2023-04-06T20:58:17;99459.19;;;9.50;88.82
48027;BME280;50714;49.208;5.364;2023-04-06T21:08:19;99453.34;;;9.46;89.66
48027;BME280;50714;49.208;5.364;2023-04-06T21:18:20;99447.50;;;9.36;89.24
48027;BME280;50714;49.208;5.364;2023-04-06T21:28:21;99428.53;;;9.23;88.61
48027;BME280;50714;49.208;5.364;2023-04-06T21:38:21;99428.84;;;9.07;88.67
48027;BME280;50714;49.208;5.364;2023-04-06T21:48:21;99435.53;;;8.89;88.42
48027;BME280;50714;49.208;5.364;2023-04-06T21:58:21;99430.22;;;8.53;88.07
48027;BME280;50714;49.208;5.364;2023-04-06T22:08:22;99424.16;;;8.45;90.17
48027;BME280;50714;49.208;5.364;2023-04-06T22:18:22;99416.47;;;8.42;91.03
48027;BME280;50714;49.208;5.364;2023-04-06T22:28:23;99422.44;;;8.23;92.43
48027;BME280;50714;49.208;5.364;2023-04-06T22:38:24;99422.22;;;8.03;94.91
48027;BME280;50714;49.208;5.364;2023-04-06T22:48:24;99425.41;;;8.13;94.23
48027;BME280;50714;49.208;5.364;2023-04-06T22:58:25;99409.03;;;8.29;93.02
48027;BME280;50714;49.208;5.364;2023-04-06T23:08:25;99402.22;;;8.27;92.31
48027;BME280;50714;49.208;5.364;2023-04-06T23:18:25;99404.84;;;8.20;91.93
48027;BME280;50714;49.208;5.364;2023-04-06T23:28:26;99417.09;;;8.08;90.96
48027;BME280;50714;49.208;5.364;2023-04-06T23:38:26;99412.41;;;7.80;91.38
48027;BME280;50714;49.208;5.364;2023-04-06T23:48:26;99406.13;;;7.73;91.28
48027;BME280;50714;49.208;5.364;2023-04-06T23:58:27;99406.31;;;7.57;91.92
